sensor_id;sensor_type;location;lat;lon;timestamp;temperature;humidity
15103;DHT22;7652;53.584;9.998;2024-01-15T00:00:25;2.50;99.90
15103;DHT22;7652;53.584;9.998;2024-01-15T00:03:47;2.60;99.90
15103;DHT22;7652;53.584;9.998;2024-01-15T00:07:09;2.60;99.90
15103;DHT22;7652;53.584;9.998;2024-01-15T00:10:30;2.60;99.90
15103;DHT22;7652;53.584;9.998;2024-01-15T00:13:53;2.70;99.90
15103;DHT22;7652;53.584;9.998;2024-01-15T00:17:15;2.80;99.90
15103;DHT22;7652;53.584;9.998;2024-01-15T00:20:36;2.70;99.90
15103;DHT22;7652;53.584;9.998;2024-01-15T00:23:58;2.60;99.90
15103;DHT22;7652;53.584;9.998;2024-01-15T00:27:19;2.60;99.90
15103;DHT22;7652;53.584;9.998;2024-01-15T00:30:42;2.60;99.90
15103;DHT22;7652;53.584;9.998;2024-01-15T00:34:04;2.60;99.90
15103;DHT22;7652;53.584;9.998;2024-01-15T00:37:26;2.60;99.90
15103;DHT22;7652;53.584;9.998;2024-01-15T00:40:47;2.70;99.90
15103;DHT22;7652;53.584;9.998;2024-01-15T00:44:09;2.70;99.90
15103;DHT22;7652;53.584;9.998;2024-01-15T00:47:31;2.70;99.90
15103;DHT22;7652;53.584;9.998;2024-01-15T00:50:53;2.70;99.90
15103;DHT22;7652;53.584;9.998;2024-01-15T00:54:15;2.70;99.90
15103;DHT22;7652;53.584;9.998;2024-01-15T00:57:37;2.70;99.90
15103;DHT22;7652;53.584;9.998;2024-01-15T01:00:58;2.70;99.90
15103;DHT22;7652;53.584;9.998;2024-01-15T01:04:22;2.70;99.90
15103;DHT22;7652;53.584;9.998;2024-01-15T01:07:43;2.60;99.90
15103;DHT22;7652;53.584;9.998;2024-01-15T01:11:05;2.60;99.90
15103;DHT22;7652;53.584;9.998;2024-01-15T01:14:27;2.60;99.90
15103;DHT22;7652;53.584;9.998;2024-01-15T01:17:48;2.60;99.90
15103;DHT22;7652;53.584;9.998;2024-01-15T01:21:11;2.50;99.90
15103;DHT22;7652;53.584;9.998;2024-01-15T01:24:33;2.60;99.90
15103;DHT22;7652;53.584;9.998;2024-01-15T01:27:54;2.60;99.90
15103;DHT22;7652;53.584;9.998;2024-01-15T01:31:16;2.60;99.90
15103;DHT22;7652;53.584;9.998;2024-01-15T01:34:40;2.60;99.90
15103;DHT22;7652;53.584;9.998;2024-01-15T01:38:04;2.70;99.90
15103;DHT22;7652;53.584;9.998;2024-01-15T01:41:25;2.70;99.90
15103;DHT22;7652;53.584;9.998;2024-01-15T01:44:47;2.70;99.90
15103;DHT22;7652;53.584;9.998;2024-01-15T01:48:08;2.70;99.90
15103;DHT22;7652;53.584;9.998;2024-01-15T01:51:30;2.80;99.90
15103;DHT22;7652;53.584;9.998;2024-01-15T01:54:54;2.80;99.90
15103;DHT22;7652;53.584;9.998;2024-01-15T01:58:16;2.90;99.90
15103;DHT22;7652;53.584;9.998;2024-01-15T02:01:38;2.90;99.90
15103;DHT22;7652;53.584;9.998;2024-01-15T02:05:00;2.90;99.90
15103;DHT22;7652;53.584;9.998;2024-01-15T02:08:22;2.90;99.90
15103;DHT22;7652;53.584;9.998;2024-01-15T02:11:46;3.00;99.90
15103;DHT22;7652;53.584;9.998;2024-01-15T02:15:08;3.00;99.90
15103;DHT22;7652;53.584;9.998;2024-01-15T02:18:39;2.90;99.90
15103;DHT22;7652;53.584;9.998;2024-01-15T02:22:01;2.70;99.90
15103;DHT22;7652;53.584;9.998;2024-01-15T02:25:24;2.60;99.90
15103;DHT22;7652;53.584;9.998;2024-01-15T02:28:46;2.60;99.90
15103;DHT22;7652;53.584;9.998;2024-01-15T02:32:09;2.60;99.90
15103;DHT22;7652;53.584;9.998;2024-01-15T02:35:30;2.60;99.90
15103;DHT22;7652;53.584;9.998;2024-01-15T02:38:52;2.60;99.90
15103;DHT22;7652;53.584;9.998;2024-01-15T02:42:14;2.70;99.90
15103;DHT22;7652;53.584;9.998;2024-01-15T02:45:36;2.70;99.90
15103;DHT22;7652;53.584;9.998;2024-01-15T02:48:58;2.70;99.90
15103;DHT22;7652;53.584;9.998;2024-01-15T02:52:20;2.80;99.90
15103;DHT22;7652;53.584;9.998;2024-01-15T02:55:42;2.90;99.90
15103;DHT22;7652;53.584;9.998;2024-01-15T02:59:05;2.90;99.90
15103;DHT22;7652;53.584;9.998;2024-01-15T03:02:26;2.90;99.90
15103;DHT22;7652;53.584;9.998;2024-01-15T03:05:47;2.90;99.90
15103;DHT22;7652;53.584;9.998;2024-01-15T03:09:09;3.00;99.90
15103;DHT22;7652;53.584;9.998;2024-01-15T03:12:30;3.00;99.90
15103;DHT22;7652;53.584;9.998;2024-01-15T03:15:53;3.00;99.90
15103;DHT22;7652;53.584;9.998;2024-01-15T03:19:15;3.00;99.90
15103;DHT22;7652;53.584;9.998;2024-01-15T03:22:36;3.00;99.90
15103;DHT22;7652;53.584;9.998;2024-01-15T03:25:57;3.00;99.90
15103;DHT22;7652;53.584;9.998;2024-01-15T03:29:19;3.10;99.90
15103;DHT22;7652;53.584;9.998;2024-01-15T03:32:42;3.10;99.90
15103;DHT22;7652;53.584;9.998;2024-01-15T03:36:04;3.10;99.90
15103;DHT22;7652;53.584;9.998;2024-01-15T03:39:26;3.10;99.90
15103;DHT22;7652;53.584;9.998;2024-01-15T03:42:47;3.10;99.90
15103;DHT22;7652;53.584;9.998;2024-01-15T03:46:09;3.00;99.90
15103;DHT22;7652;53.584;9.998;2024-01-15T03:49:32;2.90;99.90
15103;DHT22;7652;53.584;9.998;2024-01-15T03:52:53;2.90;99.90
15103;DHT22;7652;53.584;9.998;2024-01-15T03:56:15;2.90;99.90
15103;DHT22;7652;53.584;9.998;2024-01-15T03:59:36;2.90;99.90
15103;DHT22;7652;53.584;9.998;2024-01-15T04:02:58;2.80;99.90
15103;DHT22;7652;53.584;9.998;2024-01-15T04:06:22;2.80;99.90
15103;DHT22;7652;53.584;9.998;2024-01-15T04:09:44;2.80;99.90
15103;DHT22;7652;53.584;9.998;2024-01-15T04:13:05;2.70;99.90
15103;DHT22;7652;53.584;9.998;2024-01-15T04:16:26;2.70;99.90
15103;DHT22;7652;53.584;9.998;2024-01-15T04:19:48;2.80;99.90
15103;DHT22;7652;53.584;9.998;2024-01-15T04:23:11;2.80;99.90
15103;DHT22;7652;53.584;9.998;2024-01-15T04:26:33;2.90;99.90
15103;DHT22;7652;53.584;9.998;2024-01-15T04:29:54;2.80;99.90
15103;DHT22;7652;53.584;9.998;2024-01-15T04:33:15;2.80;99.90
15103;DHT22;7652;53.584;9.998;2024-01-15T04:36:39;2.90;99.90
15103;DHT22;7652;53.584;9.998;2024-01-15T04:40:02;2.90;99.90
15103;DHT22;7652;53.584;9.998;2024-01-15T04:43:24;3.00;99.90
15103;DHT22;7652;53.584;9.998;2024-01-15T04:46:46;3.00;99.90
15103;DHT22;7652;53.584;9.998;2024-01-15T04:50:08;3.10;99.90
15103;DHT22;7652;53.584;9.998;2024-01-15T04:53:29;3.10;99.90
15103;DHT22;7652;53.584;9.998;2024-01-15T04:56:52;3.20;99.90
15103;DHT22;7652;53.584;9.998;2024-01-15T05:00:14;3.20;99.90
15103;DHT22;7652;53.584;9.998;2024-01-15T05:03:35;3.10;99.90
15103;DHT22;7652;53.584;9.998;2024-01-15T05:06:57;3.00;99.90
15103;DHT22;7652;53.584;9.998;2024-01-15T05:10:18;3.00;99.90
15103;DHT22;7652;53.584;9.998;2024-01-15T05:13:41;3.10;99.90
15103;DHT22;7652;53.584;9.998;2024-01-15T05:17:02;3.00;99.90
15103;DHT22;7652;53.584;9.998;2024-01-15T05:20:27;3.00;99.90
15103;DHT22;7652;53.584;9.998;2024-01-15T05:23:49;3.00;99.90
15103;DHT22;7652;53.584;9.998;2024-01-15T05:27:10;2.90;99.90
15103;DHT22;7652;53.584;9.998;2024-01-15T05:30:33;3.00;99.90
15103;DHT22;7652;53.584;9.998;2024-01-15T05:33:55;2.90;99.90
15103;DHT22;7652;53.584;9.998;2024-01-15T05:37:16;3.00;99.90
15103;DHT22;7652;53.584;9.998;2024-01-15T05:40:38;3.00;99.90
15103;DHT22;7652;53.584;9.998;2024-01-15T05:43:59;3.10;99.90
15103;DHT22;7652;53.584;9.998;2024-01-15T05:47:22;3.10;99.90
15103;DHT22;7652;53.584;9.998;2024-01-15T05:50:44;3.20;99.90
15103;DHT22;7652;53.584;9.998;2024-01-15T05:54:05;3.20;99.90
15103;DHT22;7652;53.584;9.998;2024-01-15T05:57:27;3.10;99.90
15103;DHT22;7652;53.584;9.998;2024-01-15T06:00:48;3.00;99.90
15103;DHT22;7652;53.584;9.998;2024-01-15T06:04:12;3.00;99.90
15103;DHT22;7652;53.584;9.998;2024-01-15T06:07:34;2.90;99.90
15103;DHT22;7652;53.584;9.998;2024-01-15T06:10:56;3.00;99.90
15103;DHT22;7652;53.584;9.998;2024-01-15T06:14:21;3.00;99.90
15103;DHT22;7652;53.584;9.998;2024-01-15T06:17:43;3.10;99.90
15103;DHT22;7652;53.584;9.998;2024-01-15T06:21:06;3.10;99.90
15103;DHT22;7652;53.584;9.998;2024-01-15T06:24:28;3.10;99.90
15103;DHT22;7652;53.584;9.998;2024-01-15T06:27:49;3.10;99.90
15103;DHT22;7652;53.584;9.998;2024-01-15T06:31:12;3.20;99.90
15103;DHT22;7652;53.584;9.998;2024-01-15T06:34:33;3.30;99.90
15103;DHT22;7652;53.584;9.998;2024-01-15T06:37:56;3.40;99.90
15103;DHT22;7652;53.584;9.998;2024-01-15T06:41:18;3.40;99.90
15103;DHT22;7652;53.584;9.998;2024-01-15T06:44:39;3.50;99.90
15103;DHT22;7652;53.584;9.998;2024-01-15T06:48:00;3.50;99.90
15103;DHT22;7652;53.584;9.998;2024-01-15T06:51:22;3.50;99.90
15103;DHT22;7652;53.584;9.998;2024-01-15T06:54:44;3.50;99.90
15103;DHT22;7652;53.584;9.998;2024-01-15T06:58:06;3.50;99.90
15103;DHT22;7652;53.584;9.998;2024-01-15T07:01:27;3.60;99.90
15103;DHT22;7652;53.584;9.998;2024-01-15T07:04:49;3.60;99.90
15103;DHT22;7652;53.584;9.998;2024-01-15T07:08:10;3.60;99.90
15103;DHT22;7652;53.584;9.998;2024-01-15T07:11:33;3.60;99.90
15103;DHT22;7652;53.584;9.998;2024-01-15T07:14:55;3.50;99.90
15103;DHT22;7652;53.584;9.998;2024-01-15T07:18:17;3.60;99.90
15103;DHT22;7652;53.584;9.998;2024-01-15T07:21:38;3.60;99.90
15103;DHT22;7652;53.584;9.998;2024-01-15T07:25:04;3.70;99.90
15103;DHT22;7652;53.584;9.998;2024-01-15T07:28:29;3.60;99.90
15103;DHT22;7652;53.584;9.998;2024-01-15T07:31:51;3.70;99.90
15103;DHT22;7652;53.584;9.998;2024-01-15T07:35:14;3.70;99.90
15103;DHT22;7652;53.584;9.998;2024-01-15T07:38:37;3.70;99.90
15103;DHT22;7652;53.584;9.998;2024-01-15T07:41:59;3.80;99.90
15103;DHT22;7652;53.584;9.998;2024-01-15T07:45:22;3.80;99.90
15103;DHT22;7652;53.584;9.998;2024-01-15T07:48:43;3.70;99.90
15103;DHT22;7652;53.584;9.998;2024-01-15T07:52:05;3.80;99.90
15103;DHT22;7652;53.584;9.998;2024-01-15T07:55:27;3.80;99.90
15103;DHT22;7652;53.584;9.998;2024-01-15T07:58:48;3.80;99.90
15103;DHT22;7652;53.584;9.998;2024-01-15T08:02:11;3.80;99.90
15103;DHT22;7652;53.584;9.998;2024-01-15T08:05:32;3.80;99.90
15103;DHT22;7652;53.584;9.998;2024-01-15T08:08:54;3.90;99.90
15103;DHT22;7652;53.584;9.998;2024-01-15T08:12:15;3.90;99.90
15103;DHT22;7652;53.584;9.998;2024-01-15T08:15:37;3.90;99.90
15103;DHT22;7652;53.584;9.998;2024-01-15T08:19:00;3.90;99.90
15103;DHT22;7652;53.584;9.998;2024-01-15T08:22:22;3.80;99.90
15103;DHT22;7652;53.584;9.998;2024-01-15T08:25:43;3.90;99.90
15103;DHT22;7652;53.584;9.998;2024-01-15T08:29:05;3.90;99.90
15103;DHT22;7652;53.584;9.998;2024-01-15T08:32:26;4.00;99.90
15103;DHT22;7652;53.584;9.998;2024-01-15T08:35:49;4.00;99.90
15103;DHT22;7652;53.584;9.998;2024-01-15T08:39:10;4.10;99.90
15103;DHT22;7652;53.584;9.998;2024-01-15T08:42:32;4.10;99.90
15103;DHT22;7652;53.584;9.998;2024-01-15T08:45:54;4.10;99.90
15103;DHT22;7652;53.584;9.998;2024-01-15T08:49:15;4.10;99.90
15103;DHT22;7652;53.584;9.998;2024-01-15T08:52:38;4.10;99.90
15103;DHT22;7652;53.584;9.998;2024-01-15T08:56:00;4.00;99.90
15103;DHT22;7652;53.584;9.998;2024-01-15T08:59:22;3.90;99.90
15103;DHT22;7652;53.584;9.998;2024-01-15T09:02:45;4.00;99.90
15103;DHT22;7652;53.584;9.998;2024-01-15T09:06:07;4.00;99.90
15103;DHT22;7652;53.584;9.998;2024-01-15T09:09:31;4.00;99.90
15103;DHT22;7652;53.584;9.998;2024-01-15T09:12:53;3.90;99.90
15103;DHT22;7652;53.584;9.998;2024-01-15T09:16:14;3.80;99.90
15103;DHT22;7652;53.584;9.998;2024-01-15T09:19:36;3.80;99.90
15103;DHT22;7652;53.584;9.998;2024-01-15T09:22:59;3.70;99.90
15103;DHT22;7652;53.584;9.998;2024-01-15T09:26:22;3.70;99.90
15103;DHT22;7652;53.584;9.998;2024-01-15T09:29:44;3.70;99.90
15103;DHT22;7652;53.584;9.998;2024-01-15T09:33:06;3.70;99.90
15103;DHT22;7652;53.584;9.998;2024-01-15T09:36:28;3.60;99.90
15103;DHT22;7652;53.584;9.998;2024-01-15T09:39:50;3.50;99.90
15103;DHT22;7652;53.584;9.998;2024-01-15T09:43:13;3.50;99.90
15103;DHT22;7652;53.584;9.998;2024-01-15T09:46:36;3.40;99.90
15103;DHT22;7652;53.584;9.998;2024-01-15T09:49:58;3.30;99.90
15103;DHT22;7652;53.584;9.998;2024-01-15T09:53:20;3.30;99.90
15103;DHT22;7652;53.584;9.998;2024-01-15T09:56:42;3.10;99.90
15103;DHT22;7652;53.584;9.998;2024-01-15T10:00:09;3.00;99.90
15103;DHT22;7652;53.584;9.998;2024-01-15T10:03:33;2.90;99.90
15103;DHT22;7652;53.584;9.998;2024-01-15T10:06:56;2.90;99.90
15103;DHT22;7652;53.584;9.998;2024-01-15T10:10:19;2.90;99.90
15103;DHT22;7652;53.584;9.998;2024-01-15T10:13:43;2.80;99.90
15103;DHT22;7652;53.584;9.998;2024-01-15T10:17:13;2.80;99.90
15103;DHT22;7652;53.584;9.998;2024-01-15T10:20:35;2.80;99.90
15103;DHT22;7652;53.584;9.998;2024-01-15T10:23:57;2.90;99.90
15103;DHT22;7652;53.584;9.998;2024-01-15T10:27:21;2.90;99.90
15103;DHT22;7652;53.584;9.998;2024-01-15T10:30:43;3.00;99.90
15103;DHT22;7652;53.584;9.998;2024-01-15T10:34:12;3.10;99.90
15103;DHT22;7652;53.584;9.998;2024-01-15T10:37:36;3.20;99.90
15103;DHT22;7652;53.584;9.998;2024-01-15T10:40:57;3.20;99.90
15103;DHT22;7652;53.584;9.998;2024-01-15T10:44:19;3.30;99.90
15103;DHT22;7652;53.584;9.998;2024-01-15T10:47:41;3.40;99.90
15103;DHT22;7652;53.584;9.998;2024-01-15T10:51:05;3.40;99.90
15103;DHT22;7652;53.584;9.998;2024-01-15T10:54:32;3.40;99.90
15103;DHT22;7652;53.584;9.998;2024-01-15T10:57:54;3.30;99.90
15103;DHT22;7652;53.584;9.998;2024-01-15T11:01:17;3.30;99.90
15103;DHT22;7652;53.584;9.998;2024-01-15T11:04:40;3.20;99.90
15103;DHT22;7652;53.584;9.998;2024-01-15T11:08:05;3.10;99.90
15103;DHT22;7652;53.584;9.998;2024-01-15T11:11:27;3.20;99.90
15103;DHT22;7652;53.584;9.998;2024-01-15T11:14:49;3.20;99.90
15103;DHT22;7652;53.584;9.998;2024-01-15T11:18:11;3.20;99.90
15103;DHT22;7652;53.584;9.998;2024-01-15T11:21:42;3.20;99.90
15103;DHT22;7652;53.584;9.998;2024-01-15T11:25:13;3.30;99.90
15103;DHT22;7652;53.584;9.998;2024-01-15T11:28:47;3.30;99.90
15103;DHT22;7652;53.584;9.998;2024-01-15T11:32:09;3.30;99.90
15103;DHT22;7652;53.584;9.998;2024-01-15T11:35:48;3.50;99.90
15103;DHT22;7652;53.584;9.998;2024-01-15T11:39:41;3.50;99.90
15103;DHT22;7652;53.584;9.998;2024-01-15T11:43:06;3.60;99.90
15103;DHT22;7652;53.584;9.998;2024-01-15T11:46:33;3.60;99.90
15103;DHT22;7652;53.584;9.998;2024-01-15T11:50:02;3.60;99.90
15103;DHT22;7652;53.584;9.998;2024-01-15T11:53:33;3.60;99.90
15103;DHT22;7652;53.584;9.998;2024-01-15T11:56:59;3.60;99.90
15103;DHT22;7652;53.584;9.998;2024-01-15T12:00:24;3.70;99.90
15103;DHT22;7652;53.584;9.998;2024-01-15T12:03:47;3.70;99.90
15103;DHT22;7652;53.584;9.998;2024-01-15T12:07:08;3.60;99.90
15103;DHT22;7652;53.584;9.998;2024-01-15T12:10:30;3.60;99.90
15103;DHT22;7652;53.584;9.998;2024-01-15T12:13:52;3.50;99.90
15103;DHT22;7652;53.584;9.998;2024-01-15T12:17:17;3.40;99.90
15103;DHT22;7652;53.584;9.998;2024-01-15T12:20:40;3.40;99.90
15103;DHT22;7652;53.584;9.998;2024-01-15T12:24:03;3.50;99.90
15103;DHT22;7652;53.584;9.998;2024-01-15T12:27:25;3.50;99.90
15103;DHT22;7652;53.584;9.998;2024-01-15T12:30:47;3.60;99.90
15103;DHT22;7652;53.584;9.998;2024-01-15T12:34:12;3.50;99.90
15103;DHT22;7652;53.584;9.998;2024-01-15T12:37:35;3.40;99.90
15103;DHT22;7652;53.584;9.998;2024-01-15T12:40:57;3.60;99.90
15103;DHT22;7652;53.584;9.998;2024-01-15T12:44:18;3.60;99.90
15103;DHT22;7652;53.584;9.998;2024-01-15T12:47:40;3.60;99.90
15103;DHT22;7652;53.584;9.998;2024-01-15T12:51:08;3.60;99.90
15103;DHT22;7652;53.584;9.998;2024-01-15T12:54:29;3.60;99.90
15103;DHT22;7652;53.584;9.998;2024-01-15T12:57:51;3.70;99.90
15103;DHT22;7652;53.584;9.998;2024-01-15T13:01:15;3.70;99.90
15103;DHT22;7652;53.584;9.998;2024-01-15T13:04:36;3.50;99.90
15103;DHT22;7652;53.584;9.998;2024-01-15T13:08:00;3.50;99.90
15103;DHT22;7652;53.584;9.998;2024-01-15T13:11:21;3.70;99.90
15103;DHT22;7652;53.584;9.998;2024-01-15T13:14:43;3.50;99.90
15103;DHT22;7652;53.584;9.998;2024-01-15T13:18:05;3.50;99.90
15103;DHT22;7652;53.584;9.998;2024-01-15T13:21:26;3.50;99.90
15103;DHT22;7652;53.584;9.998;2024-01-15T13:24:49;3.70;99.90
15103;DHT22;7652;53.584;9.998;2024-01-15T13:28:11;3.80;99.90
15103;DHT22;7652;53.584;9.998;2024-01-15T13:31:33;3.70;99.90
15103;DHT22;7652;53.584;9.998;2024-01-15T13:34:56;3.70;99.90
15103;DHT22;7652;53.584;9.998;2024-01-15T13:38:18;3.70;99.90
15103;DHT22;7652;53.584;9.998;2024-01-15T13:41:41;3.70;99.90
15103;DHT22;7652;53.584;9.998;2024-01-15T13:45:05;3.60;99.90
15103;DHT22;7652;53.584;9.998;2024-01-15T13:48:28;3.50;99.90
15103;DHT22;7652;53.584;9.998;2024-01-15T13:51:49;3.60;99.90
15103;DHT22;7652;53.584;9.998;2024-01-15T13:55:11;3.60;99.90
15103;DHT22;7652;53.584;9.998;2024-01-15T13:58:35;3.60;99.90
15103;DHT22;7652;53.584;9.998;2024-01-15T14:01:57;3.50;99.90
15103;DHT22;7652;53.584;9.998;2024-01-15T14:05:18;3.60;99.90
15103;DHT22;7652;53.584;9.998;2024-01-15T14:08:40;3.60;99.90
15103;DHT22;7652;53.584;9.998;2024-01-15T14:12:02;3.60;99.90
15103;DHT22;7652;53.584;9.998;2024-01-15T14:15:25;3.50;99.90
15103;DHT22;7652;53.584;9.998;2024-01-15T14:18:48;3.40;99.90
15103;DHT22;7652;53.584;9.998;2024-01-15T14:22:10;3.40;99.90
15103;DHT22;7652;53.584;9.998;2024-01-15T14:25:31;3.30;99.90
15103;DHT22;7652;53.584;9.998;2024-01-15T14:28:52;3.30;99.90
15103;DHT22;7652;53.584;9.998;2024-01-15T14:32:15;3.40;99.90
15103;DHT22;7652;53.584;9.998;2024-01-15T14:35:37;3.20;99.90
15103;DHT22;7652;53.584;9.998;2024-01-15T14:38:59;3.30;99.90
15103;DHT22;7652;53.584;9.998;2024-01-15T14:42:20;3.20;99.90
15103;DHT22;7652;53.584;9.998;2024-01-15T14:45:42;3.20;99.90
15103;DHT22;7652;53.584;9.998;2024-01-15T14:49:08;3.20;99.90
15103;DHT22;7652;53.584;9.998;2024-01-15T14:52:29;3.10;99.90
15103;DHT22;7652;53.584;9.998;2024-01-15T14:55:51;3.10;99.90
15103;DHT22;7652;53.584;9.998;2024-01-15T14:59:14;3.00;99.90
15103;DHT22;7652;53.584;9.998;2024-01-15T15:02:35;2.80;99.90
15103;DHT22;7652;53.584;9.998;2024-01-15T15:05:59;2.70;99.90
15103;DHT22;7652;53.584;9.998;2024-01-15T15:09:22;2.70;99.90
15103;DHT22;7652;53.584;9.998;2024-01-15T15:12:43;2.60;99.90
15103;DHT22;7652;53.584;9.998;2024-01-15T15:16:05;2.60;99.90
15103;DHT22;7652;53.584;9.998;2024-01-15T15:19:27;2.50;99.90
15103;DHT22;7652;53.584;9.998;2024-01-15T15:22:51;2.50;99.90
15103;DHT22;7652;53.584;9.998;2024-01-15T15:26:15;2.30;99.90
15103;DHT22;7652;53.584;9.998;2024-01-15T15:29:37;2.20;99.90
15103;DHT22;7652;53.584;9.998;2024-01-15T15:32:58;2.30;99.90
15103;DHT22;7652;53.584;9.998;2024-01-15T15:36:20;2.20;99.90
15103;DHT22;7652;53.584;9.998;2024-01-15T15:39:43;2.20;99.90
15103;DHT22;7652;53.584;9.998;2024-01-15T15:43:05;2.30;99.90
15103;DHT22;7652;53.584;9.998;2024-01-15T15:46:26;2.30;99.90
15103;DHT22;7652;53.584;9.998;2024-01-15T15:49:47;2.20;99.90
15103;DHT22;7652;53.584;9.998;2024-01-15T15:53:09;2.20;99.90
15103;DHT22;7652;53.584;9.998;2024-01-15T15:56:32;2.20;99.90
15103;DHT22;7652;53.584;9.998;2024-01-15T15:59:58;2.20;99.90
15103;DHT22;7652;53.584;9.998;2024-01-15T16:03:19;2.20;99.90
15103;DHT22;7652;53.584;9.998;2024-01-15T16:06:41;2.20;99.90
15103;DHT22;7652;53.584;9.998;2024-01-15T16:10:04;2.20;99.90
15103;DHT22;7652;53.584;9.998;2024-01-15T16:13:27;2.20;99.90
15103;DHT22;7652;53.584;9.998;2024-01-15T16:16:48;2.20;99.90
15103;DHT22;7652;53.584;9.998;2024-01-15T16:20:30;2.10;99.90
15103;DHT22;7652;53.584;9.998;2024-01-15T16:24:12;2.10;99.90
15103;DHT22;7652;53.584;9.998;2024-01-15T16:27:48;2.10;99.90
15103;DHT22;7652;53.584;9.998;2024-01-15T16:31:12;2.10;99.90
15103;DHT22;7652;53.584;9.998;2024-01-15T16:34:33;2.10;99.90
15103;DHT22;7652;53.584;9.998;2024-01-15T16:37:54;2.10;99.90
15103;DHT22;7652;53.584;9.998;2024-01-15T16:41:16;2.10;99.90
15103;DHT22;7652;53.584;9.998;2024-01-15T16:44:38;2.10;99.90
15103;DHT22;7652;53.584;9.998;2024-01-15T16:48:01;2.00;99.90
15103;DHT22;7652;53.584;9.998;2024-01-15T16:51:23;1.90;99.90
15103;DHT22;7652;53.584;9.998;2024-01-15T16:54:44;1.80;99.90
15103;DHT22;7652;53.584;9.998;2024-01-15T16:58:05;1.80;99.90
15103;DHT22;7652;53.584;9.998;2024-01-15T17:01:27;1.80;99.90
15103;DHT22;7652;53.584;9.998;2024-01-15T17:04:49;1.90;99.90
15103;DHT22;7652;53.584;9.998;2024-01-15T17:08:11;1.90;99.90
15103;DHT22;7652;53.584;9.998;2024-01-15T17:11:32;2.00;99.90
15103;DHT22;7652;53.584;9.998;2024-01-15T17:14:54;2.00;99.90
15103;DHT22;7652;53.584;9.998;2024-01-15T17:18:15;2.00;99.90
15103;DHT22;7652;53.584;9.998;2024-01-15T17:21:39;2.10;99.90
15103;DHT22;7652;53.584;9.998;2024-01-15T17:25:01;2.10;99.90
15103;DHT22;7652;53.584;9.998;2024-01-15T17:28:23;2.20;99.90
15103;DHT22;7652;53.584;9.998;2024-01-15T17:31:46;2.30;99.90
15103;DHT22;7652;53.584;9.998;2024-01-15T17:35:08;2.30;99.90
15103;DHT22;7652;53.584;9.998;2024-01-15T17:38:30;2.40;99.90
15103;DHT22;7652;53.584;9.998;2024-01-15T17:41:53;2.30;99.90
15103;DHT22;7652;53.584;9.998;2024-01-15T17:45:15;2.40;99.90
15103;DHT22;7652;53.584;9.998;2024-01-15T17:48:37;2.30;99.90
15103;DHT22;7652;53.584;9.998;2024-01-15T17:51:59;2.20;99.90
15103;DHT22;7652;53.584;9.998;2024-01-15T17:55:21;2.20;99.90
15103;DHT22;7652;53.584;9.998;2024-01-15T17:58:43;2.20;99.90
15103;DHT22;7652;53.584;9.998;2024-01-15T18:02:05;2.30;99.90
15103;DHT22;7652;53.584;9.998;2024-01-15T18:05:26;2.40;99.90
15103;DHT22;7652;53.584;9.998;2024-01-15T18:08:48;2.40;99.90
15103;DHT22;7652;53.584;9.998;2024-01-15T18:12:10;2.40;99.90
15103;DHT22;7652;53.584;9.998;2024-01-15T18:15:32;2.30;99.90
15103;DHT22;7652;53.584;9.998;2024-01-15T18:18:54;2.50;99.90
15103;DHT22;7652;53.584;9.998;2024-01-15T18:22:15;2.50;99.90
15103;DHT22;7652;53.584;9.998;2024-01-15T18:25:37;2.40;99.90
15103;DHT22;7652;53.584;9.998;2024-01-15T18:29:00;2.50;99.90
15103;DHT22;7652;53.584;9.998;2024-01-15T18:32:22;2.60;99.90
15103;DHT22;7652;53.584;9.998;2024-01-15T18:35:44;2.70;99.90
15103;DHT22;7652;53.584;9.998;2024-01-15T18:39:06;2.60;99.90
15103;DHT22;7652;53.584;9.998;2024-01-15T18:42:27;2.70;99.90
15103;DHT22;7652;53.584;9.998;2024-01-15T18:45:51;2.70;99.90
15103;DHT22;7652;53.584;9.998;2024-01-15T18:49:12;2.70;99.90
15103;DHT22;7652;53.584;9.998;2024-01-15T18:52:35;2.60;99.90
15103;DHT22;7652;53.584;9.998;2024-01-15T18:55:56;2.60;99.90
15103;DHT22;7652;53.584;9.998;2024-01-15T18:59:18;2.60;99.90
15103;DHT22;7652;53.584;9.998;2024-01-15T19:02:41;2.50;99.90
15103;DHT22;7652;53.584;9.998;2024-01-15T19:06:04;2.50;99.90
15103;DHT22;7652;53.584;9.998;2024-01-15T19:09:26;2.50;99.90
15103;DHT22;7652;53.584;9.998;2024-01-15T19:12:48;2.50;99.90
15103;DHT22;7652;53.584;9.998;2024-01-15T19:16:10;2.60;99.90
15103;DHT22;7652;53.584;9.998;2024-01-15T19:19:34;2.50;99.90
15103;DHT22;7652;53.584;9.998;2024-01-15T19:22:57;2.50;99.90
15103;DHT22;7652;53.584;9.998;2024-01-15T19:26:21;2.60;99.90
15103;DHT22;7652;53.584;9.998;2024-01-15T19:29:43;2.60;99.90
15103;DHT22;7652;53.584;9.998;2024-01-15T19:33:05;2.70;99.90
15103;DHT22;7652;53.584;9.998;2024-01-15T19:36:28;2.60;99.90
15103;DHT22;7652;53.584;9.998;2024-01-15T19:39:50;2.60;99.90
15103;DHT22;7652;53.584;9.998;2024-01-15T19:43:11;2.50;99.90
15103;DHT22;7652;53.584;9.998;2024-01-15T19:46:32;2.50;99.90
15103;DHT22;7652;53.584;9.998;2024-01-15T19:49:54;2.40;99.90
15103;DHT22;7652;53.584;9.998;2024-01-15T19:53:17;2.40;99.90
15103;DHT22;7652;53.584;9.998;2024-01-15T19:56:38;2.40;99.90
15103;DHT22;7652;53.584;9.998;2024-01-15T20:00:00;2.40;99.90
15103;DHT22;7652;53.584;9.998;2024-01-15T20:03:22;2.40;99.90
15103;DHT22;7652;53.584;9.998;2024-01-15T20:06:43;2.40;99.90
15103;DHT22;7652;53.584;9.998;2024-01-15T20:10:07;2.40;99.90
15103;DHT22;7652;53.584;9.998;2024-01-15T20:13:30;2.40;99.90
15103;DHT22;7652;53.584;9.998;2024-01-15T20:16:51;2.50;99.90
15103;DHT22;7652;53.584;9.998;2024-01-15T20:20:13;2.40;99.90
15103;DHT22;7652;53.584;9.998;2024-01-15T20:23:36;2.30;99.90
15103;DHT22;7652;53.584;9.998;2024-01-15T20:27:11;2.40;99.90
15103;DHT22;7652;53.584;9.998;2024-01-15T20:30:32;2.40;99.90
15103;DHT22;7652;53.584;9.998;2024-01-15T20:33:54;2.40;99.90
15103;DHT22;7652;53.584;9.998;2024-01-15T20:37:16;2.40;99.90
15103;DHT22;7652;53.584;9.998;2024-01-15T20:40:37;2.40;99.90
15103;DHT22;7652;53.584;9.998;2024-01-15T20:44:01;2.50;99.90
15103;DHT22;7652;53.584;9.998;2024-01-15T20:47:23;2.50;99.90
15103;DHT22;7652;53.584;9.998;2024-01-15T20:50:45;2.40;99.90
15103;DHT22;7652;53.584;9.998;2024-01-15T20:54:07;2.50;99.90
15103;DHT22;7652;53.584;9.998;2024-01-15T20:57:28;2.40;99.90
15103;DHT22;7652;53.584;9.998;2024-01-15T21:00:51;2.40;99.90
15103;DHT22;7652;53.584;9.998;2024-01-15T21:04:13;2.40;99.90
15103;DHT22;7652;53.584;9.998;2024-01-15T21:07:35;2.40;99.90
15103;DHT22;7652;53.584;9.998;2024-01-15T21:10:56;2.20;99.90
15103;DHT22;7652;53.584;9.998;2024-01-15T21:14:17;2.20;99.90
15103;DHT22;7652;53.584;9.998;2024-01-15T21:17:40;2.10;99.90
15103;DHT22;7652;53.584;9.998;2024-01-15T21:21:03;2.10;99.90
15103;DHT22;7652;53.584;9.998;2024-01-15T21:24:24;2.10;99.90
15103;DHT22;7652;53.584;9.998;2024-01-15T21:27:48;2.00;99.90
15103;DHT22;7652;53.584;9.998;2024-01-15T21:31:09;2.00;99.90
15103;DHT22;7652;53.584;9.998;2024-01-15T21:34:32;2.00;99.90
15103;DHT22;7652;53.584;9.998;2024-01-15T21:37:54;1.90;99.90
15103;DHT22;7652;53.584;9.998;2024-01-15T21:41:15;1.90;99.90
15103;DHT22;7652;53.584;9.998;2024-01-15T21:44:37;2.00;99.90
15103;DHT22;7652;53.584;9.998;2024-01-15T21:47:58;2.00;99.90
15103;DHT22;7652;53.584;9.998;2024-01-15T21:51:22;1.80;99.90
15103;DHT22;7652;53.584;9.998;2024-01-15T21:54:43;1.90;99.90
15103;DHT22;7652;53.584;9.998;2024-01-15T21:58:04;1.90;99.90
15103;DHT22;7652;53.584;9.998;2024-01-15T22:01:26;1.80;99.90